createdAt,value
2018-07-20T22:06:32.093Z,98028.70
2018-07-20T22:08:59.648Z,98015.92
2018-07-20T22:13:27.741Z,97991.36
2018-07-20T22:15:54.510Z,97986.64
2018-07-20T22:18:20.964Z,97985.59
2018-07-20T22:20:48.053Z,97991.08
2018-07-20T22:23:15.938Z,98001.09
2018-07-20T22:25:43.849Z,98003.06
2018-07-20T22:28:11.446Z,98001.41
2018-07-20T22:30:39.408Z,98001.27
2018-07-20T22:33:06.070Z,98002.92
2018-07-20T22:35:33.422Z,98004.27
2018-07-20T22:38:00.176Z,97994.88
2018-07-20T22:40:27.152Z,97993.03
2018-07-20T22:42:54.164Z,97990.67
2018-07-20T22:45:20.905Z,97987.98
2018-07-20T22:47:47.390Z,97989.80
2018-07-20T22:50:13.848Z,97990.64
2018-07-20T22:52:40.301Z,97988.95
2018-07-20T22:55:08.707Z,97987.25
2018-07-20T22:57:35.505Z,97986.77
2018-07-20T23:00:01.978Z,97989.27
2018-07-20T23:02:28.427Z,97987.22
2018-07-20T23:04:56.568Z,97982.34
2018-07-20T23:07:23.020Z,97973.31
2018-07-20T23:09:50.157Z,97979.70
2018-07-20T23:12:17.936Z,97979.66
2018-07-20T23:14:44.412Z,97978.15
2018-07-20T23:17:11.879Z,97975.58
2018-07-20T23:19:39.245Z,97976.73
2018-07-20T23:22:06.015Z,97987.39
2018-07-20T23:24:33.386Z,97978.45
2018-07-20T23:26:59.848Z,97978.23
2018-07-20T23:29:27.238Z,97978.11
2018-07-20T23:31:56.889Z,97966.84
2018-07-20T23:34:23.373Z,97973.14
2018-07-20T23:36:49.841Z,97972.02
2018-07-20T23:39:16.326Z,97975.30
2018-07-20T23:41:42.793Z,97978.55
2018-07-20T23:44:09.278Z,97977.44
2018-07-20T23:46:35.762Z,97982.20
2018-07-20T23:49:02.500Z,97980.63
2018-07-20T23:51:29.059Z,97979.28
2018-07-20T23:53:55.502Z,97979.45
2018-07-20T23:56:21.953Z,97976.31
2018-07-20T23:58:48.750Z,97976.01
